createdAt,value
2023-02-26T00:00:02.710Z,1.3
2023-02-26T00:20:02.341Z,1.1
2023-02-26T00:40:02.421Z,1.2
2023-02-26T01:00:02.924Z,1
2023-02-26T01:20:02.541Z,1
2023-02-26T01:40:02.815Z,1.1
2023-02-26T02:00:02.067Z,1.1
2023-02-26T02:20:02.505Z,1.1
2023-02-26T02:40:02.836Z,1
2023-02-26T03:00:02.101Z,1
2023-02-26T03:20:02.597Z,1
2023-02-26T03:40:02.909Z,1
2023-02-26T04:00:02.247Z,1.1
2023-02-26T04:20:03.034Z,1
2023-02-26T04:40:02.374Z,1
2023-02-26T05:00:02.772Z,1
2023-02-26T05:20:02.169Z,1
2023-02-26T05:40:02.655Z,1
2023-02-26T06:00:02.889Z,1
2023-02-26T06:20:02.676Z,0.8
2023-02-26T06:40:02.962Z,1
2023-02-26T07:00:02.321Z,0.9
2023-02-26T07:20:02.807Z,1
2023-02-26T07:40:02.323Z,1
2023-02-26T08:00:02.736Z,1.3
2023-02-26T08:20:02.974Z,1.6
2023-02-26T08:40:02.345Z,2.1
2023-02-26T09:00:02.918Z,2.8
2023-02-26T09:20:02.535Z,3.7
2023-02-26T09:40:03.542Z,4.3
2023-02-26T10:00:08.791Z,4.6
2023-02-26T10:20:02.122Z,5.7
2023-02-26T10:40:02.542Z,5.9
2023-02-26T11:00:02.852Z,5.9
2023-02-26T11:20:02.480Z,6.1
2023-02-26T11:40:02.793Z,6.5
2023-02-26T12:00:02.122Z,6
2023-02-26T12:20:02.767Z,5.6
2023-02-26T12:40:02.187Z,5.1
2023-02-26T13:00:03.472Z,5.7
2023-02-26T13:20:03.069Z,5.7
2023-02-26T13:40:02.791Z,4.9
2023-02-26T14:00:02.233Z,4.3
2023-02-26T14:20:03.017Z,4.4
2023-02-26T14:40:02.794Z,4.1
2023-02-26T15:00:02.468Z,4.2
2023-02-26T15:20:03.105Z,3.9
2023-02-26T15:40:02.547Z,3.8
2023-02-26T16:00:03.182Z,3.5
2023-02-26T16:20:02.928Z,3.2
2023-02-26T16:40:02.289Z,2.9
2023-02-26T17:00:02.689Z,2.8
2023-02-26T17:20:02.808Z,2.5
2023-02-26T17:40:02.272Z,2.3
2023-02-26T18:00:02.857Z,2.2
2023-02-26T18:20:02.644Z,2
2023-02-26T18:40:03.019Z,2
2023-02-26T19:00:02.421Z,2
2023-02-26T19:20:02.371Z,1.8
2023-02-26T19:40:02.762Z,1.6
2023-02-26T20:00:03.887Z,1.4
2023-02-26T20:20:02.562Z,1.1
2023-02-26T20:40:02.967Z,0.9
2023-02-26T21:00:03.171Z,0.9
2023-02-26T21:20:02.766Z,1
2023-02-26T21:40:02.769Z,1
2023-02-26T22:00:02.974Z,1.2
2023-02-26T22:20:02.644Z,1.2
2023-02-26T22:40:03.019Z,1.1
2023-02-26T23:00:02.374Z,1.1
2023-02-26T23:20:02.813Z,1
2023-02-26T23:40:02.277Z,1
